Azua, Dominican Republic
Current Conditions -  °F | °C
As of 7:00 PM on Tuesday 25 Nov 2014 (Local Time) from MDBH Reporting Station
Scattered Clouds Scattered Clouds  
Wind Chill: 82°   Ceiling: Unl
Heat Index: 89°   Visibility: 6mi
Dew Point: 75°   Wind: 16mph
Humidity: 79%   Direction: 130°SE
Pressure: 30"   Gusts: NA
Location:  18.46°N, 70.74°W
Report Text: MDBH 252300Z 13014KT 9999 FEW020CB FEW022 SCT100 28/24 Q1016 CB/NW
Loading
Personal Weather Stations






























Interactive Weather Map New forecast layout! Learn more

10-Day Weather Forecast

Advertisements
Track Severe Weather on mobile